Terminal Aerodrome Forecast
Issued by NWS

Home | Current Version | Previous Version | Text Only | Print | Product List | Glossary On
Versions: 1 2 3 4 5 6 7 8 9 10 11 12 13
000
FTUS44 KCRP 231125
TAFLRD
TAF
KLRD 231125Z 2312/2412 12008KT P6SM SCT015 BKN025
      TEMPO 2312/2314 BKN015
     FM231500 15011KT P6SM VCSH BKN025
     FM231700 15016G22KT P6SM VCTS BKN035CB OVC150
     FM240200 13020KT P6SM VCTS SCT020CB BKN035
      TEMPO 2408/2412 BKN020CB=

USA.gov is the U.S. government's official web portal to all federal, state and local government web resources and services.